Time;durP1;ratioP1;P1;durP2;ratioP2;P2;SDS_P1;SDS_P2;PMS_P1;PMS_P2;Temp;Humidity;BMP_temperature;BMP_pressure;BME280_temperature;BME280_humidity;BME280_pressure;Samples;Min_cycle;Max_cycle;Signal;HPM_P1;HPM_P2
2022/05/05 00:01:49;;;;;;;9.98;8.15;;;;;;;15.67;58.06;99218.81;5106680;28;20047;-75
2022/05/05 00:04:22;;;;;;;11.45;8.80;;;;;;;13.69;57.97;98895.25;5106936;28;20085;-75
2022/05/05 00:06:54;;;;;;;9.63;8.63;;;;;;;15.63;58.25;99218.16;5106625;28;20081;-76
2022/05/05 00:09:27;;;;;;;8.85;6.43;;;;;;;15.65;58.42;99221.59;5106915;28;20093;-75
2022/05/05 00:14:51;;;;;;;7.00;5.20;;;;;;;14.78;58.04;99208.72;5105794;28;20239;-75
2022/05/05 00:17:23;;;;;;;7.07;5.18;;;;;;;15.66;58.48;99225.13;5105749;28;20300;-75
2022/05/05 00:19:56;;;;;;;8.23;5.25;;;;;;;15.64;58.58;99227.88;5106758;28;20211;-75
2022/05/05 00:22:28;;;;;;;7.15;6.32;;;;;;;15.61;58.69;99246.81;5106728;28;20044;-76
2022/05/05 00:25:00;;;;;;;6.78;5.40;;;;;;;15.61;58.51;99225.44;5106496;28;20039;-75
2022/05/05 00:27:33;;;;;;;8.00;6.35;;;;;;;15.53;59.21;99227.88;5106500;28;20044;-75
2022/05/05 00:30:07;;;;;;;5.95;5.35;;;;;;;15.54;58.69;99216.22;5106694;28;20046;-75
2022/05/05 00:32:39;;;;;;;6.37;5.73;;;;;;;15.20;59.14;99175.25;5106348;28;20036;-75
2022/05/05 00:35:11;;;;;;;6.72;5.70;;;;;;;13.61;59.25;98898.50;5105696;28;20113;-74
2022/05/05 00:37:44;;;;;;;7.65;6.05;;;;;;;15.55;58.76;99227.75;5089111;28;20060;-75
2022/05/05 00:40:16;;;;;;;7.57;6.65;;;;;;;15.57;59.28;99232.00;5106140;28;20044;-75
2022/05/05 00:42:50;;;;;;;8.30;6.45;;;;;;;14.24;59.78;99030.50;5105324;28;20044;-75
2022/05/05 00:45:22;;;;;;;9.93;6.43;;;;;;;12.69;60.55;98802.44;5106135;28;20040;-76
2022/05/05 00:48:03;;;;;;;7.38;5.97;;;;;;;15.34;61.30;99243.59;5106236;28;20040;-75
2022/05/05 00:50:37;;;;;;;6.97;5.57;;;;;;;15.36;60.36;99249.69;5105961;28;20077;-76
2022/05/05 00:53:10;;;;;;;8.85;5.72;;;;;;;14.58;60.64;99131.97;5106194;28;20047;-75
2022/05/05 00:55:43;;;;;;;9.25;8.23;;;;;;;12.87;60.38;98891.50;5105910;28;20044;-75
2022/05/05 00:58:17;;;;;;;11.02;8.10;;;;;;;15.22;60.55;99263.22;5105925;28;20040;-75
2022/05/05 01:00:51;;;;;;;9.77;8.77;;;;;;;15.17;60.88;99255.56;5105877;28;20077;-76
2022/05/05 01:03:24;;;;;;;8.43;7.57;;;;;;;15.08;61.19;99254.44;5105851;28;20054;-76
2022/05/05 01:05:59;;;;;;;10.68;8.45;;;;;;;15.07;61.39;99249.22;5106001;28;20115;-76
2022/05/05 01:08:27;;;;;;;11.05;8.05;;;;;;;14.51;61.33;99168.03;5105708;28;20056;-76
2022/05/05 01:10:57;;;;;;;8.63;7.78;;;;;;;14.97;61.50;99262.41;5105679;28;20040;-76
2022/05/05 01:13:29;;;;;;;9.82;8.43;;;;;;;14.14;61.75;99133.41;5105621;28;20040;-76
2022/05/05 01:15:57;;;;;;;9.43;8.45;;;;;;;15.06;61.45;99258.19;5105578;28;20052;-75
2022/05/05 01:18:27;;;;;;;9.43;8.40;;;;;;;15.04;61.68;99254.78;5105627;28;20120;-75
2022/05/05 01:20:59;;;;;;;8.65;7.75;;;;;;;15.06;61.22;99258.19;5105841;28;20047;-76
2022/05/05 01:23:29;;;;;;;9.80;8.43;;;;;;;14.70;61.80;99206.63;5105857;28;20040;-75
2022/05/05 01:28:49;;;;;;;8.07;7.28;;;;;;;15.15;61.78;99262.00;5105465;28;20304;-76
2022/05/05 01:31:22;;;;;;;8.65;7.75;;;;;;;14.77;60.78;99196.34;5089045;28;20055;-75
2022/05/05 01:33:54;;;;;;;11.00;7.90;;;;;;;15.14;60.89;99253.13;5105443;28;20044;-76
2022/05/05 01:36:27;;;;;;;9.82;8.82;;;;;;;15.14;61.07;99261.13;5105448;28;20040;-76
2022/05/05 01:39:00;;;;;;;9.20;8.30;;;;;;;14.80;61.13;99216.59;5105254;28;20109;-76
2022/05/05 01:41:36;;;;;;;10.93;8.43;;;;;;;14.99;61.04;99263.13;5121864;28;20044;-75
2022/05/05 01:44:08;;;;;;;10.98;8.02;;;;;;;15.02;61.18;99267.41;5105586;28;20036;-76
2022/05/05 01:46:41;;;;;;;9.65;7.95;;;;;;;14.91;61.72;99265.53;5105367;28;20044;-75
2022/05/05 01:49:13;;;;;;;10.30;8.63;;;;;;;14.87;61.51;99269.38;5105329;28;20086;-76
2022/05/05 01:51:46;;;;;;;9.05;8.00;;;;;;;14.90;61.44;99263.81;5104448;28;20040;-76
2022/05/05 01:54:20;;;;;;;9.25;7.93;;;;;;;14.91;61.54;99265.53;5105528;28;20047;-75
2022/05/05 01:56:52;;;;;;;9.48;7.95;;;;;;;14.85;61.92;99259.78;5104647;28;20048;-75
2022/05/05 01:59:24;;;;;;;8.70;7.85;;;;;;;14.09;62.14;99149.75;5105227;28;20036;-76
2022/05/05 02:01:56;;;;;;;9.35;8.45;;;;;;;14.74;62.05;99266.78;5105157;28;20113;-73
2022/05/05 02:04:29;;;;;;;9.43;7.85;;;;;;;14.74;61.79;99265.94;5121397;28;20036;-75
2022/05/05 02:07:01;;;;;;;10.18;8.98;;;;;;;14.76;61.64;99269.34;5105082;28;20044;-76
2022/05/05 02:09:48;;;;;;;8.88;7.53;;;;;;;14.82;61.46;99260.88;5108443;28;20040;-75
2022/05/05 02:12:20;;;;;;;14.18;7.43;;;;;;;14.71;61.92;99258.16;5109229;28;20040;-76
2022/05/05 02:14:53;;;;;;;9.05;7.20;;;;;;;14.72;61.89;99259.84;5109105;28;20039;-77
2022/05/05 02:17:25;;;;;;;8.70;6.65;;;;;;;14.73;61.93;99267.75;5108908;28;20044;-77
2022/05/05 02:19:58;;;;;;;8.50;7.03;;;;;;;13.94;62.05;99126.03;5109152;28;20040;-76
2022/05/05 02:22:30;;;;;;;7.80;7.00;;;;;;;13.83;62.14;99131.28;5108933;28;20200;-76
2022/05/05 02:25:05;;;;;;;7.38;6.68;;;;;;;14.63;62.60;99263.19;5108927;28;20040;-77
2022/05/05 02:27:49;;;;;;;8.35;7.50;;;;;;;14.35;63.32;99222.47;5108734;28;20089;-76
2022/05/05 02:30:23;;;;;;;7.18;6.22;;;;;;;14.57;61.95;99256.47;5108776;28;20292;-76
2022/05/05 02:32:56;;;;;;;9.13;7.00;;;;;;;13.62;62.29;99128.34;5108905;28;20036;-77
2022/05/05 02:35:28;;;;;;;7.50;6.63;;;;;;;14.50;62.36;99257.84;5108549;28;20036;-76
2022/05/05 02:40:51;;;;;;;7.90;6.40;;;;;;;14.36;63.05;99256.16;5107555;28;20115;-77
2022/05/05 02:43:24;;;;;;;9.43;6.45;;;;;;;13.58;62.61;99122.38;5107627;28;20292;-77
2022/05/05 02:45:56;;;;;;;7.78;6.97;;;;;;;12.77;62.62;98981.72;5108337;28;20043;-77
2022/05/05 02:48:26;;;;;;;8.13;7.30;;;;;;;13.64;62.60;99129.94;5108214;28;20082;-76
2022/05/05 02:50:56;;;;;;;7.75;6.80;;;;;;;14.38;62.83;99269.38;5108222;28;20036;-76
2022/05/05 02:56:17;;;;;;;7.65;6.50;;;;;;;14.38;62.81;99259.56;5107416;28;20235;-77
2022/05/05 02:58:49;;;;;;;10.73;7.57;;;;;;;14.37;62.80;99271.22;5108486;28;20089;-76
2022/05/05 03:01:22;;;;;;;11.75;7.97;;;;;;;14.28;63.22;99271.88;5108295;28;20040;-76
2022/05/05 03:03:54;;;;;;;9.20;8.05;;;;;;;14.29;63.20;99265.56;5108320;28;20082;-76
2022/05/05 03:06:27;;;;;;;8.10;7.30;;;;;;;13.43;63.53;99126.97;5107199;28;20042;-76
2022/05/05 03:09:00;;;;;;;7.88;6.95;;;;;;;14.25;63.48;99264.09;5108057;28;20048;-76
2022/05/05 03:11:34;;;;;;;8.70;7.78;;;;;;;14.28;63.27;99268.34;5107846;28;20044;-76
2022/05/05 03:14:06;;;;;;;9.27;7.60;;;;;;;14.25;63.21;99269.41;5107820;28;20242;-77
2022/05/05 03:16:39;;;;;;;8.82;7.93;;;;;;;14.31;63.32;99265.47;5107711;28;20177;-77
2022/05/05 03:19:11;;;;;;;8.57;7.68;;;;;;;13.92;63.22;99213.19;5107040;28;20086;-77
2022/05/05 03:21:43;;;;;;;9.82;8.55;;;;;;;14.27;63.03;99275.50;5106948;28;20036;-76
2022/05/05 03:24:16;;;;;;;9.40;7.20;;;;;;;14.23;63.53;99268.69;5107896;28;20284;-77
2022/05/05 03:26:49;;;;;;;10.98;8.23;;;;;;;14.19;64.11;99267.19;5106786;28;20043;-76
2022/05/05 03:29:23;;;;;;;9.03;8.07;;;;;;;11.81;63.71;98900.63;5107777;28;20048;-77
2022/05/05 03:31:56;;;;;;;7.88;7.07;;;;;;;13.11;63.06;99097.25;5107747;28;20382;-77
2022/05/05 03:34:28;;;;;;;8.82;7.72;;;;;;;14.14;63.55;99274.66;5107738;28;20047;-76
2022/05/05 03:37:01;;;;;;;8.35;7.38;;;;;;;14.12;63.71;99284.59;5107664;28;20040;-77
2022/05/05 03:39:33;;;;;;;9.18;7.97;;;;;;;14.08;64.04;99285.75;5106875;28;20043;-77
2022/05/05 03:42:08;;;;;;;10.40;8.40;;;;;;;14.04;64.17;99287.78;5107249;28;20288;-77
2022/05/05 03:44:40;;;;;;;9.63;7.93;;;;;;;13.48;64.00;99193.22;5107494;28;20040;-76
2022/05/05 03:47:12;;;;;;;8.73;7.82;;;;;;;13.83;64.10;99269.78;5107077;28;20215;-77
2022/05/05 03:49:45;;;;;;;9.23;8.25;;;;;;;13.93;64.33;99298.34;5107032;28;20044;-77
2022/05/05 03:52:17;;;;;;;10.35;8.57;;;;;;;13.96;64.39;99298.13;5106998;28;20044;-76
2022/05/05 03:54:49;;;;;;;13.10;11.80;;;;;;;13.96;64.38;99294.63;5106264;28;20048;-77
2022/05/05 03:57:23;;;;;;;10.32;9.18;;;;;;;13.94;64.47;99293.88;5106931;28;20036;-76
2022/05/05 03:59:56;;;;;;;12.93;10.45;;;;;;;13.96;64.62;99298.13;5106387;28;20044;-77
2022/05/05 04:02:28;;;;;;;11.82;9.15;;;;;;;13.83;65.02;99309.75;5106833;28;20296;-77
2022/05/05 04:05:02;;;;;;;9.85;7.85;;;;;;;13.32;64.79;99221.81;5107338;28;20246;-77
2022/05/05 04:07:34;;;;;;;8.23;7.15;;;;;;;13.78;64.84;99304.72;5106777;28;20040;-76
2022/05/05 04:10:09;;;;;;;11.20;9.35;;;;;;;13.81;64.53;99309.84;5106935;28;20040;-77
2022/05/05 04:12:43;;;;;;;12.13;7.85;;;;;;;13.77;65.14;99306.56;5106112;28;20048;-76
2022/05/05 04:15:15;;;;;;;9.50;7.20;;;;;;;13.77;64.76;99313.69;5106924;28;20044;-77
2022/05/05 04:17:47;;;;;;;9.15;8.18;;;;;;;13.79;64.55;99315.28;5105778;28;20036;-77
2022/05/05 04:20:20;;;;;;;8.20;7.07;;;;;;;13.77;64.70;99316.34;5106884;28;20039;-77
2022/05/05 04:22:52;;;;;;;9.05;8.15;;;;;;;13.72;65.41;99315.81;5106488;28;20051;-77
2022/05/05 04:25:24;;;;;;;10.98;8.45;;;;;;;13.74;64.65;99321.88;5106446;28;20089;-77
2022/05/05 04:27:58;;;;;;;9.27;7.57;;;;;;;13.77;64.64;99324.34;5105672;28;20039;-77
2022/05/05 04:30:31;;;;;;;8.97;8.03;;;;;;;13.65;64.90;99315.38;5105768;28;20048;-77
2022/05/05 04:33:03;;;;;;;8.90;7.95;;;;;;;13.11;64.98;99226.78;5105809;28;20040;-77
2022/05/05 04:35:36;;;;;;;9.10;7.80;;;;;;;13.64;64.85;99326.13;5106164;28;20040;-77
2022/05/05 04:38:09;;;;;;;10.65;8.10;;;;;;;13.65;64.84;99326.03;5105493;28;20064;-77
2022/05/05 04:40:42;;;;;;;14.38;8.85;;;;;;;13.67;64.77;99326.78;5106552;28;20047;-77
2022/05/05 04:43:16;;;;;;;10.80;8.80;;;;;;;13.66;65.09;99327.75;5106115;28;20035;-77
2022/05/05 04:45:48;;;;;;;9.48;8.07;;;;;;;12.85;65.04;99196.63;5106321;28;20044;-77
2022/05/05 04:48:20;;;;;;;10.82;8.07;;;;;;;13.55;65.19;99324.09;5105309;28;20047;-77
2022/05/05 04:50:54;;;;;;;8.93;7.47;;;;;;;13.63;64.89;99330.59;5105369;28;20047;-77
2022/05/05 04:53:26;;;;;;;8.27;6.93;;;;;;;12.79;65.03;99191.72;5105874;28;20052;-77
2022/05/05 04:55:56;;;;;;;7.25;6.35;;;;;;;13.63;65.02;99333.28;5106095;28;20040;-77
2022/05/05 04:58:28;;;;;;;8.38;7.47;;;;;;;13.67;64.99;99328.59;5105084;28;20257;-77
2022/05/05 05:01:00;;;;;;;11.13;7.53;;;;;;;13.65;64.86;99330.50;5106920;28;20322;-77
2022/05/05 05:03:35;;;;;;;7.93;6.65;;;;;;;13.69;64.90;99329.34;5105897;28;20046;-77
2022/05/05 05:06:09;;;;;;;9.95;6.55;;;;;;;12.79;64.50;99168.63;5106103;28;20044;-77
2022/05/05 05:08:42;;;;;;;9.38;6.90;;;;;;;12.54;64.25;99248.31;5105992;28;20062;-77
2022/05/05 05:11:14;;;;;;;6.95;6.05;;;;;;;13.87;64.02;99330.75;5105922;28;20337;-77
2022/05/05 05:13:48;;;;;;;8.18;6.55;;;;;;;12.19;64.08;99051.31;5105498;28;20085;-77
2022/05/05 05:16:20;;;;;;;7.88;6.00;;;;;;;13.89;64.07;99335.97;5104844;28;20337;-77
2022/05/05 05:18:53;;;;;;;7.03;6.13;;;;;;;13.91;63.83;99328.72;5104809;28;20051;-77
2022/05/05 05:21:26;;;;;;;6.30;5.70;;;;;;;13.13;63.78;99203.59;5105470;28;20044;-77
2022/05/05 05:23:59;;;;;;;7.68;5.38;;;;;;;13.94;64.08;99325.84;5104603;28;20043;-77
2022/05/05 05:26:31;;;;;;;6.90;6.22;;;;;;;13.93;63.95;99334.78;5104899;28;20109;-77
2022/05/05 05:29:05;;;;;;;7.40;5.75;;;;;;;13.91;64.21;99331.38;5104635;28;20107;-77
2022/05/05 05:31:37;;;;;;;9.30;6.35;;;;;;;12.66;64.48;99196.13;5105454;28;20062;-77
2022/05/05 05:34:09;;;;;;;8.27;6.45;;;;;;;13.96;64.17;99334.56;5105347;28;20040;-77
2022/05/05 05:36:42;;;;;;;10.45;8.13;;;;;;;14.00;63.63;99336.94;5104739;28;20044;-77
2022/05/05 05:39:14;;;;;;;11.23;6.32;;;;;;;14.03;63.86;99335.84;5105125;28;20365;-77
2022/05/05 05:41:47;;;;;;;8.10;5.85;;;;;;;13.35;63.62;99221.59;5105271;28;20085;-77
2022/05/05 05:44:20;;;;;;;8.70;6.18;;;;;;;14.08;63.79;99334.56;5107195;28;20048;-77
2022/05/05 05:46:52;;;;;;;6.38;5.68;;;;;;;14.07;63.91;99346.19;5109456;28;20089;-76
2022/05/05 05:49:25;;;;;;;6.72;5.38;;;;;;;14.11;63.37;99339.69;5108399;28;20315;-77
2022/05/05 05:51:57;;;;;;;6.55;5.15;;;;;;;13.65;63.31;99262.13;5109402;28;20043;-77
2022/05/05 05:54:30;;;;;;;6.47;4.55;;;;;;;14.20;62.98;99342.69;5109342;28;20095;-77
2022/05/05 05:57:02;;;;;;;5.20;3.72;;;;;;;14.22;62.99;99346.09;5109233;28;20085;-77
2022/05/05 05:59:35;;;;;;;7.50;3.92;;;;;;;11.46;62.73;98881.75;5109247;28;20048;-77
2022/05/05 06:04:59;;;;;;;4.22;3.20;;;;;;;14.38;62.47;99366.22;5109316;28;20040;-77
2022/05/05 06:07:31;;;;;;;6.07;3.40;;;;;;;14.45;62.28;99351.50;5109323;28;20040;-77
2022/05/05 06:10:04;;;;;;;4.35;3.60;;;;;;;11.29;62.19;98807.72;5108717;28;20040;-77
2022/05/05 06:12:37;;;;;;;6.05;4.45;;;;;;;14.64;62.05;99352.91;5108933;28;20081;-77
2022/05/05 06:15:12;;;;;;;4.30;3.85;;;;;;;14.71;62.31;99359.50;5108108;28;20040;-77
2022/05/05 06:17:44;;;;;;;5.30;4.43;;;;;;;14.02;61.52;99230.22;5108472;28;20044;-77
2022/05/05 06:20:16;;;;;;;4.68;3.35;;;;;;;14.83;61.28;99357.78;5109168;28;20048;-77
2022/05/05 06:22:50;;;;;;;5.32;4.43;;;;;;;15.05;60.82;99355.25;5109078;28;20200;-77
2022/05/05 06:25:24;;;;;;;4.90;3.83;;;;;;;13.98;58.88;99165.66;5108943;28;20036;-77
2022/05/05 06:27:58;;;;;;;4.45;3.42;;;;;;;15.98;55.50;99182.50;5108986;28;20054;-77
2022/05/05 06:30:32;;;;;;;3.83;3.08;;;;;;;17.56;54.04;99342.56;5108854;28;20046;-77
2022/05/05 06:33:04;;;;;;;3.17;2.27;;;;;;;17.45;53.94;99345.31;5108764;28;20040;-77
2022/05/05 06:35:37;;;;;;;3.65;2.67;;;;;;;17.39;54.24;99348.50;5125089;28;20346;-77
2022/05/05 06:38:09;;;;;;;3.42;2.55;;;;;;;17.27;53.92;99296.78;5107226;28;20097;-77
2022/05/05 06:40:42;;;;;;;6.05;2.47;;;;;;;17.21;53.72;99263.34;5106519;28;20062;-77
2022/05/05 06:43:14;;;;;;;3.53;2.28;;;;;;;17.89;53.08;99346.94;5106300;28;20055;-77
2022/05/05 06:45:48;;;;;;;3.95;2.15;;;;;;;13.47;53.26;98612.03;5107093;28;20036;-77
2022/05/05 06:48:20;;;;;;;3.58;2.22;;;;;;;18.08;52.68;99335.47;5106753;28;20036;-77
2022/05/05 06:50:52;;;;;;;5.80;2.40;;;;;;;18.14;52.61;99341.16;5107230;28;20046;-77
2022/05/05 06:53:24;;;;;;;2.97;2.20;;;;;;;18.13;52.91;99334.09;5106286;28;20036;-77
2022/05/05 06:55:58;;;;;;;7.88;6.93;;;;;;;17.97;53.04;99288.13;5106440;28;20177;-77
2022/05/05 06:58:27;;;;;;;9.73;6.72;;;;;;;18.36;52.72;99340.13;5107092;28;20176;-77
2022/05/05 07:05:22;;;;;;;4.97;3.58;;;;;;;18.47;53.02;99341.88;5107124;28;20049;-77
2022/05/05 07:06:39;;;;;;;4.22;3.05;;;;;;;18.65;52.89;99334.06;5106307;28;20206;-77
2022/05/05 07:12:01;;;;;;;3.47;2.55;;;;;;;18.74;51.70;99339.47;5106858;28;20040;-77
2022/05/05 07:14:34;;;;;;;4.68;2.28;;;;;;;18.95;51.75;99342.06;5105932;28;20047;-77
2022/05/05 07:17:09;;;;;;;4.32;3.22;;;;;;;19.07;49.94;99340.13;5106893;28;20036;-78
2022/05/05 07:19:42;;;;;;;5.10;3.20;;;;;;;19.26;50.76;99340.13;5106571;28;20051;-77
2022/05/05 07:22:15;;;;;;;2.95;1.92;;;;;;;19.34;51.08;99340.28;5105724;28;20288;-77
2022/05/05 07:24:48;;;;;;;2.72;2.10;;;;;;;19.13;50.44;99294.75;5105789;28;20040;-78
2022/05/05 07:27:21;;;;;;;4.35;1.80;;;;;;;19.51;50.31;99344.16;5106462;28;20036;-78
2022/05/05 07:29:54;;;;;;;7.55;5.57;;;;;;;17.53;49.63;99026.66;5106378;28;20044;-78
2022/05/05 07:32:28;;;;;;;7.40;5.03;;;;;;;19.64;48.68;99335.78;5106359;28;20062;-78
2022/05/05 07:35:00;;;;;;;;;;;;;;;19.72;47.14;99336.78;5107000;28;20047;-78
2022/05/05 07:37:36;;;;;;;3.07;1.97;;;;;;;19.79;49.39;99342.44;5059194;28;1310997;-78
2022/05/05 07:40:10;;;;;;;3.08;1.80;;;;;;;19.27;49.44;99252.31;5106491;28;20395;-78
2022/05/05 07:42:43;;;;;;;3.47;1.60;;;;;;;19.97;48.86;99340.72;5106590;28;20296;-78
2022/05/05 07:45:15;;;;;;;3.05;2.05;;;;;;;20.09;48.61;99341.41;5107291;28;20036;-78
2022/05/05 07:47:50;;;;;;;3.45;1.88;;;;;;;20.31;47.25;99340.25;5107398;28;20036;-78
2022/05/05 07:50:22;;;;;;;2.33;1.52;;;;;;;16.02;48.15;98596.78;5105983;28;20048;-78
2022/05/05 07:52:54;;;;;;;16.30;13.63;;;;;;;19.65;48.06;99195.84;5106237;28;20040;-77
2022/05/05 07:55:27;;;;;;;12.25;10.77;;;;;;;20.13;48.18;99265.66;5106935;28;20039;-78
2022/05/05 07:57:59;;;;;;;6.28;5.03;;;;;;;20.74;47.54;99343.19;5106938;28;20047;-78
2022/05/05 08:00:32;;;;;;;3.85;2.67;;;;;;;20.69;46.96;99375.09;5106342;28;20040;-78
2022/05/05 08:03:06;;;;;;;2.60;1.70;;;;;;;20.71;46.53;99340.78;5089711;28;20040;-78
2022/05/05 08:05:40;;;;;;;2.40;1.60;;;;;;;19.35;47.61;99134.22;5107112;28;20089;-77
2022/05/05 08:08:13;;;;;;;3.60;2.90;;;;;;;20.85;47.66;99344.84;5105664;28;20051;-78
2022/05/05 08:10:47;;;;;;;3.60;2.03;;;;;;;20.83;47.75;99349.53;5106108;28;20040;-77
2022/05/05 08:13:21;;;;;;;2.55;1.70;;;;;;;20.81;47.65;99354.22;5106493;28;20044;-78
2022/05/05 08:15:53;;;;;;;2.67;1.80;;;;;;;20.86;47.64;99353.75;5106398;28;20043;-78
2022/05/05 08:18:25;;;;;;;3.55;1.67;;;;;;;20.92;47.29;99347.78;5105644;28;20212;-76
2022/05/05 08:20:54;;;;;;;2.88;1.92;;;;;;;21.06;47.20;99347.28;5106365;28;20342;-78
2022/05/05 08:23:26;;;;;;;3.25;2.10;;;;;;;21.36;46.96;99351.47;5106404;28;20046;-78
2022/05/05 08:28:49;;;;;;;3.30;2.03;;;;;;;21.62;44.68;99340.78;5105615;28;20040;-78
2022/05/05 08:31:21;;;;;;;5.35;3.55;;;;;;;21.06;44.55;99232.28;5106221;28;20047;-78
2022/05/05 08:33:55;;;;;;;8.93;4.80;;;;;;;22.00;42.55;99345.84;5106180;28;20040;-78
2022/05/05 08:36:28;;;;;;;;;;;;;;;22.12;39.68;99350.97;5106172;28;20036;-78
2022/05/05 08:39:00;;;;;;;3.95;2.63;;;;;;;22.20;42.97;99346.47;5105797;28;19923;-78
2022/05/05 08:41:33;;;;;;;2.75;1.90;;;;;;;22.21;43.00;99339.22;5105446;28;20123;-78
2022/05/05 08:44:06;;;;;;;2.85;1.80;;;;;;;21.99;43.13;99343.28;5104997;28;20043;-78
2022/05/05 08:46:40;;;;;;;2.40;1.50;;;;;;;21.78;43.29;99346.31;5105907;28;20261;-78
2022/05/05 08:49:17;;;;;;;1.92;1.15;;;;;;;21.68;43.12;99350.94;5105806;28;20040;-78
2022/05/05 08:51:53;;;;;;;4.03;3.10;;;;;;;21.62;40.82;99351.56;5088620;28;20044;-78
2022/05/05 08:54:28;;;;;;;3.92;2.65;;;;;;;21.54;43.38;99356.88;5105628;28;20040;-78
2022/05/05 08:57:01;;;;;;;6.10;4.22;;;;;;;21.72;42.72;99346.94;5105704;28;20052;-78
2022/05/05 08:59:33;;;;;;;6.80;5.53;;;;;;;22.01;42.27;99347.53;5105088;28;20055;-77
2022/05/05 09:02:09;;;;;;;5.50;3.00;;;;;;;22.09;40.95;99323.28;5089063;28;20211;-77
2022/05/05 09:04:45;;;;;;;3.25;1.92;;;;;;;22.27;39.75;99350.25;5104896;28;20382;-78
2022/05/05 09:07:18;;;;;;;2.60;1.50;;;;;;;22.18;41.36;99350.34;5105625;28;20040;-78
2022/05/05 09:09:51;;;;;;;1.80;1.30;;;;;;;22.16;41.77;99350.50;5088607;28;20043;-78
2022/05/05 09:12:25;;;;;;;2.63;1.52;;;;;;;22.25;41.06;99341.44;5105094;28;20055;-78
2022/05/05 09:14:57;;;;;;;2.20;1.52;;;;;;;22.29;41.37;99350.06;5105644;28;20036;-78
2022/05/05 09:17:29;;;;;;;2.80;1.65;;;;;;;22.24;40.93;99355.94;5105542;28;20078;-78
2022/05/05 09:20:05;;;;;;;2.70;1.70;;;;;;;22.24;40.31;99349.72;5104876;28;20039;-79
2022/05/05 09:22:39;;;;;;;2.25;1.38;;;;;;;22.29;41.27;99348.22;5105130;28;20047;-78
2022/05/05 09:25:12;;;;;;;1.75;1.23;;;;;;;22.40;40.95;99345.28;5105409;28;20035;-78
2022/05/05 09:27:51;;;;;;;2.72;1.40;;;;;;;22.51;40.17;99343.31;5105270;28;20040;-78
2022/05/05 09:30:23;;;;;;;5.53;3.47;;;;;;;22.90;39.38;99349.09;5105349;28;20196;-78
2022/05/05 09:32:56;;;;;;;3.67;2.05;;;;;;;22.52;38.01;99264.00;5105603;28;20040;-78
2022/05/05 09:35:30;;;;;;;2.10;1.50;;;;;;;23.09;36.90;99356.94;5105304;28;20047;-78
2022/05/05 09:38:03;;;;;;;2.40;1.50;;;;;;;23.32;38.04;99346.38;5105013;28;20056;-78
2022/05/05 09:40:35;;;;;;;2.95;2.00;;;;;;;23.54;37.60;99353.84;5105106;28;20040;-78
2022/05/05 09:43:11;;;;;;;3.55;1.70;;;;;;;23.65;36.38;99344.53;5104325;28;20208;-78
2022/05/05 09:45:48;;;;;;;2.00;1.30;;;;;;;23.74;37.61;99342.69;5104115;28;20074;-78
2022/05/05 09:48:21;;;;;;;3.50;2.30;;;;;;;23.64;37.42;99350.97;5105413;28;20036;-78
2022/05/05 09:50:56;;;;;;;2.67;1.60;;;;;;;23.56;36.46;99346.41;5104377;28;20204;-78
2022/05/05 09:59:14;;;;;;;2.78;1.75;;;;;;;22.61;37.13;99190.13;5105167;28;20040;-77
2022/05/05 10:01:50;;;;;;;6.40;3.95;;;;;;;23.72;37.03;99342.00;5105120;28;20055;-76
2022/05/05 10:04:23;;;;;;;3.65;2.58;;;;;;;23.78;37.00;99334.06;5104263;28;20046;-77
2022/05/05 10:06:58;;;;;;;3.58;2.35;;;;;;;23.55;36.39;99284.34;5105061;28;20040;-77
2022/05/05 10:09:33;;;;;;;3.13;2.05;;;;;;;23.97;34.73;99331.03;5104753;28;20036;-76
2022/05/05 10:12:06;;;;;;;3.42;2.13;;;;;;;23.96;34.64;99326.63;5104454;28;20040;-76
2022/05/05 10:14:39;;;;;;;;;;;;;;;24.10;32.88;99326.97;5104933;28;20300;-76
2022/05/05 10:17:15;;;;;;;4.55;3.17;;;;;;;24.33;34.98;99331.47;5104413;28;19916;-77
2022/05/05 10:19:48;;;;;;;5.93;4.80;;;;;;;24.55;35.47;99410.31;5103569;28;20134;-77
2022/05/05 10:22:34;;;;;;;5.93;4.57;;;;;;;24.78;32.40;99329.16;5104299;28;20040;-77
2022/05/05 10:25:12;;;;;;;8.57;5.32;;;;;;;24.86;33.58;99327.25;5104355;28;20036;-75
2022/05/05 10:27:48;;;;;;;7.47;5.60;;;;;;;24.80;33.52;99332.53;5103427;28;20036;-77
2022/05/05 10:30:34;;;;;;;5.47;4.00;;;;;;;24.94;32.56;99323.66;5105320;28;20040;-76
2022/05/05 10:33:08;;;;;;;5.75;4.53;;;;;;;24.90;34.55;99320.47;5108202;28;20044;-77
2022/05/05 10:35:47;;;;;;;6.82;4.45;;;;;;;24.58;33.85;99272.66;5108145;28;20062;-77
2022/05/05 10:38:43;;;;;;;4.50;3.40;;;;;;;25.03;32.50;99309.06;5107149;28;20071;-73
2022/05/05 10:41:40;;;;;;;3.67;2.78;;;;;;;24.80;34.14;99310.84;5107856;28;20043;-73
2022/05/05 10:44:24;;;;;;;8.15;5.53;;;;;;;24.28;34.09;99192.19;5108177;28;20208;-73
2022/05/05 10:46:58;;;;;;;5.23;4.00;;;;;;;25.06;35.84;99280.75;5107891;28;20040;-73
2022/05/05 10:49:45;;;;;;;4.35;2.45;;;;;;;25.27;33.34;99299.94;5108304;28;20040;-73
2022/05/05 10:52:31;;;;;;;4.63;3.10;;;;;;;23.54;32.60;99059.00;5108050;28;20043;-73
2022/05/05 10:55:36;;;;;;;8.18;5.47;;;;;;;24.97;32.75;99309.75;5108409;28;20040;-73
2022/05/05 10:58:10;;;;;;;4.70;3.40;;;;;;;24.94;35.46;99308.25;5107118;28;20047;-73
2022/05/05 11:00:44;;;;;;;4.85;2.40;;;;;;;24.09;35.51;99184.50;5107802;28;20307;-73
2022/05/05 11:03:17;;;;;;;8.63;7.45;;;;;;;24.77;35.70;99319.34;5107029;28;20323;-73
2022/05/05 11:05:50;;;;;;;4.72;3.00;;;;;;;24.47;36.22;99315.53;5107039;28;20288;-73
2022/05/05 11:08:32;;;;;;;5.72;4.28;;;;;;;24.36;34.46;99322.16;5107749;28;20051;-73
2022/05/05 11:23:07;;;;;;;5.22;4.25;;;;;;;24.17;35.04;99317.13;5107318;28;20044;-73
2022/05/05 11:25:42;;;;;;;5.20;3.60;;;;;;;24.08;35.53;99310.88;5107553;28;20040;-72
2022/05/05 11:28:15;;;;;;;6.72;3.95;;;;;;;23.98;35.96;99308.38;5106810;28;20040;-72
2022/05/05 11:30:48;;;;;;;7.00;3.85;;;;;;;23.68;36.93;99317.16;5107557;28;20317;-73
2022/05/05 11:33:21;;;;;;;5.85;4.95;;;;;;;23.25;37.18;99258.78;5106943;28;20292;-73
2022/05/05 11:35:55;;;;;;;3.47;2.45;;;;;;;23.45;36.26;99324.25;5107299;28;20081;-73
2022/05/05 11:38:28;;;;;;;2.40;1.42;;;;;;;22.71;37.23;99237.59;5106907;28;20051;-73
2022/05/05 11:41:01;;;;;;;3.75;2.67;;;;;;;21.34;36.76;99049.75;5105796;28;20056;-73
2022/05/05 11:46:25;;;;;;;3.60;2.65;;;;;;;22.93;37.48;99316.34;5107302;28;20288;-73
2022/05/05 11:48:59;;;;;;;6.65;5.45;;;;;;;22.41;37.51;99259.72;5107145;28;20043;-74
2022/05/05 11:51:32;;;;;;;6.82;4.40;;;;;;;22.24;38.00;99264.16;5107098;28;20040;-74
2022/05/05 11:54:07;;;;;;;20.92;18.05;;;;;;;22.54;37.99;99330.38;5106898;28;20036;-73
2022/05/05 11:56:45;;;;;;;9.05;5.15;;;;;;;22.41;37.70;99289.44;5106015;28;20040;-73
2022/05/05 12:02:11;;;;;;;3.00;2.00;;;;;;;22.49;38.21;99318.31;5106599;28;20304;-72
2022/05/05 12:04:45;;;;;;;3.25;2.35;;;;;;;22.31;37.74;99277.88;5106672;28;20169;-72
2022/05/05 12:07:19;;;;;;;3.00;2.30;;;;;;;22.55;38.08;99310.44;5106998;28;20040;-73
2022/05/05 12:09:53;;;;;;;3.67;2.08;;;;;;;22.51;37.48;99310.91;5106979;28;20043;-73
2022/05/05 12:12:27;;;;;;;2.92;1.75;;;;;;;22.44;37.90;99324.22;5106709;28;20088;-74
2022/05/05 12:15:02;;;;;;;4.47;1.63;;;;;;;22.26;37.77;99318.00;5105689;28;20040;-73
2022/05/05 12:17:39;;;;;;;2.30;1.42;;;;;;;21.89;38.24;99277.78;5106276;28;20044;-73
2022/05/05 12:20:12;;;;;;;2.95;1.40;;;;;;;21.95;38.38;99305.00;5106227;28;20050;-73
2022/05/05 12:22:54;;;;;;;2.85;1.48;;;;;;;21.90;38.79;99326.19;5106486;28;20055;-73
2022/05/05 12:25:29;;;;;;;3.05;1.95;;;;;;;21.81;39.25;99319.03;5105274;28;20071;-73
2022/05/05 12:28:08;;;;;;;2.03;1.45;;;;;;;21.65;39.31;99322.44;5105996;28;20284;-72
2022/05/05 12:30:43;;;;;;;2.90;1.50;;;;;;;21.63;39.77;99326.28;5106266;28;20046;-71
2022/05/05 12:33:17;;;;;;;2.83;1.55;;;;;;;21.55;40.35;99318.97;5106094;28;20044;-71
2022/05/05 12:35:52;;;;;;;4.13;1.75;;;;;;;21.33;40.42;99276.31;5105870;28;20036;-72
2022/05/05 12:38:34;;;;;;;4.35;1.88;;;;;;;21.43;40.77;99318.38;5105112;28;20055;-71
2022/05/05 12:41:08;;;;;;;2.58;1.75;;;;;;;21.41;40.76;99314.97;5106096;28;20059;-72
2022/05/05 12:43:41;;;;;;;;;;;;;;;21.23;41.10;99319.50;5106403;28;20211;-71
2022/05/05 12:46:16;;;;;;;19.30;14.95;;;;;;;21.28;40.90;99336.06;5106173;28;19916;-72
2022/05/05 12:48:53;;;;;;;11.85;8.40;;;;;;;21.28;40.78;99302.88;5105800;28;20231;-72
2022/05/05 12:51:30;;;;;;;11.23;5.13;;;;;;;21.33;40.97;99303.28;5104905;28;20227;-72